Puerto Banus, Marbella

>

This is an optional block (switch it off / on) in the settings - file ($SITE['banners'] = false;)

You can display ads, any other important text or photo’s using text / html or PHP code.

You can place one or more at the top and or bottom and it can all be different for content / size .



Meteosat more information blitzortung!


Radar lluvias  rain snow radar


Visita nuestra red de sitios de meteo:

Documentation for the template used

MeteoibericaRed estaciones Meteorologicas

MeteoclimaticRed estaciones Meteorologicas



Sin Advertencias climatologicas .En este momento tenemos Nivel Verde.    No hay Alarmas

Pagina Historial Weather Underground texto

Diario Resumen Diciembre 4, 2017 Unidades:  Tanto    impérial   Métrico
« Anterior Dia
Siguiente Dia »
Diario Semana Mensual Anual Personalizada
  Maxima: Minima: Media:
Temperatura: 57.7 °F /  14.3 °C 46 °F /  7.8 °C 52.9 °F /  11.6 °C
Punto de rocío: 47.8 °F /  8.8 °C 33.8 °F /  1.0 °C 42.8 °F /  6 °C
Humedad: 74 % 60 % 69 %
Velocidad del Viento: 24.2 mph /  38.9 km/h - 12.6 mph /  20.2 km/h
Ráfagas de viento: 24.2 mph /  38.9 km/h - -
Viento:- - East
Pression baro: 30.5 in /  1033.4 hPa 30.4 in /  1029.0 hPa -
Précipitaciones: 0 in /  0.0 mm    
Historical Graphs
 
 
Datos de tabla para Diciembre 4, 2017
Tiempo Temperatura Punto de rocío Pression baro Viento Velocidad del Viento Ráfagas de viento Humedad Las precipitaciones Rate ( Hora )
00:02 49.1 °F /  9.5 °C 40.8 °F /  4.9 °C 30.4 in /  1029.0 hPa NNW 11.5 mph /  18.5 km/h 11.5 mph /  18.5 km/h 73 % 0 in /  0.0 mm
00:07 49.1 °F /  9.5 °C 40.8 °F /  4.9 °C 30.4 in /  1029.3 hPa North 11.5 mph /  18.5 km/h 11.5 mph /  18.5 km/h 73 % 0 in /  0.0 mm
00:12 49.1 °F /  9.5 °C 40.8 °F /  4.9 °C 30.4 in /  1029.3 hPa NNE 11.5 mph /  18.5 km/h 11.5 mph /  18.5 km/h 73 % 0 in /  0.0 mm
00:17 49.1 °F /  9.5 °C 40.8 °F /  4.9 °C 30.4 in /  1029.3 hPa North 12.7 mph /  20.4 km/h 12.7 mph /  20.4 km/h 73 % 0 in /  0.0 mm
00:22 49.3 °F /  9.6 °C 40.8 °F /  4.9 °C 30.4 in /  1029.3 hPa North 11.5 mph /  18.5 km/h 11.5 mph /  18.5 km/h 73 % 0 in /  0.0 mm
00:27 49.3 °F /  9.6 °C 40.8 °F /  4.9 °C 30.4 in /  1029.3 hPa NNW 11.5 mph /  18.5 km/h 11.5 mph /  18.5 km/h 73 % 0 in /  0.0 mm
00:32 49.3 °F /  9.6 °C 40.8 °F /  4.9 °C 30.4 in /  1029.3 hPa NNE 11.5 mph /  18.5 km/h 11.5 mph /  18.5 km/h 73 % 0 in /  0.0 mm
00:37 49.3 °F /  9.6 °C 40.8 °F /  4.9 °C 30.4 in /  1029.3 hPa NNE 12.7 mph /  20.4 km/h 12.7 mph /  20.4 km/h 73 % 0 in /  0.0 mm
00:42 49.3 °F /  9.6 °C 40.8 °F /  4.9 °C 30.4 in /  1029.3 hPa NNE 12.7 mph /  20.4 km/h 12.7 mph /  20.4 km/h 73 % 0 in /  0.0 mm
00:47 49.1 °F /  9.5 °C 40.8 °F /  4.9 °C 30.4 in /  1029.3 hPa North 11.5 mph /  18.5 km/h 11.5 mph /  18.5 km/h 73 % 0 in /  0.0 mm
00:48 49.1 °F /  9.5 °C 40.8 °F /  4.9 °C 30.4 in /  1029.3 hPa North 11.5 mph /  18.5 km/h 11.5 mph /  18.5 km/h 73 % 0 in /  0.0 mm
00:53 49.1 °F /  9.5 °C 40.8 °F /  4.9 °C 30.4 in /  1029.3 hPa North 9.2 mph /  14.8 km/h 9.2 mph /  14.8 km/h 73 % 0 in /  0.0 mm
00:58 49.1 °F /  9.5 °C 40.8 °F /  4.9 °C 30.4 in /  1029.3 hPa NNE 10.4 mph /  16.7 km/h 10.4 mph /  16.7 km/h 73 % 0 in /  0.0 mm
01:03 49.3 °F /  9.6 °C 40.8 °F /  4.9 °C 30.4 in /  1029.3 hPa North 10.4 mph /  16.7 km/h 10.4 mph /  16.7 km/h 73 % 0 in /  0.0 mm
01:08 49.3 °F /  9.6 °C 40.8 °F /  4.9 °C 30.4 in /  1029.3 hPa NNE 9.2 mph /  14.8 km/h 9.2 mph /  14.8 km/h 73 % 0 in /  0.0 mm
01:13 49.3 °F /  9.6 °C 40.8 °F /  4.9 °C 30.4 in /  1029.3 hPa North 10.4 mph /  16.7 km/h 10.4 mph /  16.7 km/h 73 % 0 in /  0.0 mm
01:14 49.3 °F /  9.6 °C 40.8 °F /  4.9 °C 30.4 in /  1029.3 hPa North 9.2 mph /  14.8 km/h 9.2 mph /  14.8 km/h 73 % 0 in /  0.0 mm
01:24 49.1 °F /  9.5 °C 40.8 °F /  4.9 °C 30.4 in /  1029.3 hPa North 10.4 mph /  16.7 km/h 10.4 mph /  16.7 km/h 73 % 0 in /  0.0 mm
01:29 48.9 °F /  9.4 °C 40.6 °F /  4.8 °C 30.4 in /  1029.3 hPa North 10.4 mph /  16.7 km/h 10.4 mph /  16.7 km/h 73 % 0 in /  0.0 mm
01:34 48.9 °F /  9.4 °C 40.6 °F /  4.8 °C 30.4 in /  1029.3 hPa North 10 mph /  16.1 km/h 10 mph /  16.1 km/h 73 % 0 in /  0.0 mm
01:39 49.1 °F /  9.5 °C 40.8 °F /  4.9 °C 30.4 in /  1029.3 hPa North 10.4 mph /  16.7 km/h 10.4 mph /  16.7 km/h 73 % 0 in /  0.0 mm
01:44 49.1 °F /  9.5 °C 40.8 °F /  4.9 °C 30.4 in /  1029.0 hPa North 11.5 mph /  18.5 km/h 11.5 mph /  18.5 km/h 73 % 0 in /  0.0 mm
01:49 49.1 °F /  9.5 °C 40.8 °F /  4.9 °C 30.4 in /  1029.0 hPa NNE 9.2 mph /  14.8 km/h 9.2 mph /  14.8 km/h 73 % 0 in /  0.0 mm
01:54 49.1 °F /  9.5 °C 40.5 °F /  4.7 °C 30.4 in /  1029.0 hPa NNE 9.2 mph /  14.8 km/h 9.2 mph /  14.8 km/h 72 % 0 in /  0.0 mm
01:59 49.3 °F /  9.6 °C 40.6 °F /  4.8 °C 30.4 in /  1029.0 hPa NNE 11.5 mph /  18.5 km/h 11.5 mph /  18.5 km/h 72 % 0 in /  0.0 mm
02:04 49.1 °F /  9.5 °C 40.5 °F /  4.7 °C 30.4 in /  1029.0 hPa North 9.2 mph /  14.8 km/h 9.2 mph /  14.8 km/h 72 % 0 in /  0.0 mm
02:09 49.1 °F /  9.5 °C 40.5 °F /  4.7 °C 30.4 in /  1029.3 hPa North 9.2 mph /  14.8 km/h 9.2 mph /  14.8 km/h 72 % 0 in /  0.0 mm
02:14 49.1 °F /  9.5 °C 40.5 °F /  4.7 °C 30.4 in /  1029.0 hPa North 8.1 mph /  13.0 km/h 8.1 mph /  13.0 km/h 72 % 0 in /  0.0 mm
02:19 48.9 °F /  9.4 °C 40.5 °F /  4.7 °C 30.4 in /  1029.3 hPa North 11.5 mph /  18.5 km/h 11.5 mph /  18.5 km/h 72 % 0 in /  0.0 mm
02:24 48.9 °F /  9.4 °C 40.5 °F /  4.7 °C 30.4 in /  1029.0 hPa North 11 mph /  17.7 km/h 11 mph /  17.7 km/h 72 % 0 in /  0.0 mm
02:29 48.9 °F /  9.4 °C 40.5 °F /  4.7 °C 30.4 in /  1029.0 hPa North 9.2 mph /  14.8 km/h 9.2 mph /  14.8 km/h 72 % 0 in /  0.0 mm
02:35 48.9 °F /  9.4 °C 40.3 °F /  4.6 °C 30.4 in /  1029.0 hPa NNE 10 mph /  16.1 km/h 10 mph /  16.1 km/h 72 % 0 in /  0.0 mm
02:40 48.9 °F /  9.4 °C 40.3 °F /  4.6 °C 30.4 in /  1029.0 hPa North 9.2 mph /  14.8 km/h 9.2 mph /  14.8 km/h 72 % 0 in /  0.0 mm
02:45 48.7 °F /  9.3 °C 40.5 °F /  4.7 °C 30.4 in /  1029.0 hPa North 8.1 mph /  13.0 km/h 8.1 mph /  13.0 km/h 73 % 0 in /  0.0 mm
02:50 48.7 °F /  9.3 °C 40.5 °F /  4.7 °C 30.4 in /  1029.0 hPa NNE 8.1 mph /  13.0 km/h 8.1 mph /  13.0 km/h 73 % 0 in /  0.0 mm
02:55 48.7 °F /  9.3 °C 40.1 °F /  4.5 °C 30.4 in /  1029.0 hPa North 10 mph /  16.1 km/h 10 mph /  16.1 km/h 72 % 0 in /  0.0 mm
03:00 48.7 °F /  9.3 °C 40.1 °F /  4.5 °C 30.4 in /  1029.0 hPa North 6.9 mph /  11.1 km/h 6.9 mph /  11.1 km/h 72 % 0 in /  0.0 mm
03:05 48.7 °F /  9.3 °C 40.1 °F /  4.5 °C 30.4 in /  1029.3 hPa North 9.2 mph /  14.8 km/h 9.2 mph /  14.8 km/h 72 % 0 in /  0.0 mm
03:10 48.7 °F /  9.3 °C 40.3 °F /  4.6 °C 30.4 in /  1029.3 hPa North 6.9 mph /  11.1 km/h 6.9 mph /  11.1 km/h 72 % 0 in /  0.0 mm
03:15 48.7 °F /  9.3 °C 40.3 °F /  4.6 °C 30.4 in /  1029.0 hPa North 9.2 mph /  14.8 km/h 9.2 mph /  14.8 km/h 72 % 0 in /  0.0 mm
03:20 48.7 °F /  9.3 °C 40.3 °F /  4.6 °C 30.4 in /  1029.3 hPa North 9.2 mph /  14.8 km/h 9.2 mph /  14.8 km/h 72 % 0 in /  0.0 mm
03:25 48.9 °F /  9.4 °C 40.3 °F /  4.6 °C 30.4 in /  1029.3 hPa North 10.4 mph /  16.7 km/h 10.4 mph /  16.7 km/h 72 % 0 in /  0.0 mm
03:27 48.9 °F /  9.4 °C 39.9 °F /  4.4 °C 30.4 in /  1029.3 hPa North 10.4 mph /  16.7 km/h 10.4 mph /  16.7 km/h 71 % 0 in /  0.0 mm
03:32 48.7 °F /  9.3 °C 39.7 °F /  4.3 °C 30.4 in /  1029.3 hPa North 9.2 mph /  14.8 km/h 9.2 mph /  14.8 km/h 71 % 0 in /  0.0 mm
03:37 48.6 °F /  9.2 °C 39.9 °F /  4.4 °C 30.4 in /  1029.3 hPa North 9.2 mph /  14.8 km/h 9.2 mph /  14.8 km/h 72 % 0 in /  0.0 mm
03:42 48.4 °F /  9.1 °C 39.7 °F /  4.3 °C 30.4 in /  1029.3 hPa North 8.1 mph /  13.0 km/h 8.1 mph /  13.0 km/h 72 % 0 in /  0.0 mm
03:47 48.4 °F /  9.1 °C 39.7 °F /  4.3 °C 30.4 in /  1029.3 hPa North 9.2 mph /  14.8 km/h 9.2 mph /  14.8 km/h 72 % 0 in /  0.0 mm
03:52 48.4 °F /  9.1 °C 39.4 °F /  4.1 °C 30.4 in /  1029.3 hPa NNW 6.9 mph /  11.1 km/h 6.9 mph /  11.1 km/h 71 % 0 in /  0.0 mm
04:02 48 °F /  8.9 °C 39.4 °F /  4.1 °C 30.4 in /  1029.3 hPa North 9.2 mph /  14.8 km/h 9.2 mph /  14.8 km/h 72 % 0 in /  0.0 mm
04:07 47.8 °F /  8.8 °C 39.4 °F /  4.1 °C 30.4 in /  1029.3 hPa NNW 10.4 mph /  16.7 km/h 10.4 mph /  16.7 km/h 72 % 0 in /  0.0 mm
04:12 47.8 °F /  8.8 °C 39.4 °F /  4.1 °C 30.4 in /  1029.3 hPa North 8.1 mph /  13.0 km/h 8.1 mph /  13.0 km/h 72 % 0 in /  0.0 mm
04:18 47.8 °F /  8.8 °C 39.2 °F /  4.0 °C 30.4 in /  1029.3 hPa North 10.4 mph /  16.7 km/h 10.4 mph /  16.7 km/h 72 % 0 in /  0.0 mm
04:21 47.8 °F /  8.8 °C 39.2 °F /  4.0 °C 30.4 in /  1029.3 hPa North 10 mph /  16.1 km/h 10 mph /  16.1 km/h 72 % 0 in /  0.0 mm
04:22 47.8 °F /  8.8 °C 39.2 °F /  4.0 °C 30.4 in /  1029.3 hPa North 11.5 mph /  18.5 km/h 11.5 mph /  18.5 km/h 72 % 0 in /  0.0 mm
04:26 47.8 °F /  8.8 °C 38.8 °F /  3.8 °C 30.4 in /  1029.0 hPa North 12.7 mph /  20.4 km/h 12.7 mph /  20.4 km/h 71 % 0 in /  0.0 mm
04:28 47.8 °F /  8.8 °C 38.8 °F /  3.8 °C 30.4 in /  1029.0 hPa North 10.4 mph /  16.7 km/h 10.4 mph /  16.7 km/h 71 % 0 in /  0.0 mm
04:29 47.8 °F /  8.8 °C 38.8 °F /  3.8 °C 30.4 in /  1029.3 hPa NNE 10.4 mph /  16.7 km/h 10.4 mph /  16.7 km/h 71 % 0 in /  0.0 mm
04:31 47.8 °F /  8.8 °C 38.8 °F /  3.8 °C 30.4 in /  1029.3 hPa North 10.4 mph /  16.7 km/h 10.4 mph /  16.7 km/h 71 % 0 in /  0.0 mm
04:36 47.7 °F /  8.7 °C 38.8 °F /  3.8 °C 30.4 in /  1029.3 hPa North 10.4 mph /  16.7 km/h 10.4 mph /  16.7 km/h 71 % 0 in /  0.0 mm
04:38 47.7 °F /  8.7 °C 38.7 °F /  3.7 °C 30.4 in /  1029.3 hPa North 9.2 mph /  14.8 km/h 9.2 mph /  14.8 km/h 71 % 0 in /  0.0 mm
04:41 47.5 °F /  8.6 °C 38.7 °F /  3.7 °C 30.4 in /  1029.0 hPa North 11 mph /  17.7 km/h 11 mph /  17.7 km/h 71 % 0 in /  0.0 mm
04:46 47.5 °F /  8.6 °C 38.7 °F /  3.7 °C 30.4 in /  1029.3 hPa North 11.5 mph /  18.5 km/h 11.5 mph /  18.5 km/h 71 % 0 in /  0.0 mm
04:51 47.5 °F /  8.6 °C 38.5 °F /  3.6 °C 30.4 in /  1029.0 hPa North 8.1 mph /  13.0 km/h 8.1 mph /  13.0 km/h 71 % 0 in /  0.0 mm
04:56 47.3 °F /  8.5 °C 38.5 °F /  3.6 °C 30.4 in /  1029.0 hPa North 9.2 mph /  14.8 km/h 9.2 mph /  14.8 km/h 71 % 0 in /  0.0 mm
05:01 47.1 °F /  8.4 °C 38.3 °F /  3.5 °C 30.4 in /  1029.0 hPa North 11.5 mph /  18.5 km/h 11.5 mph /  18.5 km/h 71 % 0 in /  0.0 mm
05:06 47.1 °F /  8.4 °C 37.9 °F /  3.3 °C 30.4 in /  1029.0 hPa North 10.4 mph /  16.7 km/h 10.4 mph /  16.7 km/h 70 % 0 in /  0.0 mm
05:11 47.3 °F /  8.5 °C 37.9 °F /  3.3 °C 30.4 in /  1029.0 hPa North 11.5 mph /  18.5 km/h 11.5 mph /  18.5 km/h 70 % 0 in /  0.0 mm
05:16 47.3 °F /  8.5 °C 37.6 °F /  3.1 °C 30.4 in /  1029.0 hPa NNE 11.5 mph /  18.5 km/h 11.5 mph /  18.5 km/h 69 % 0 in /  0.0 mm
05:21 47.1 °F /  8.4 °C 37.4 °F /  3.0 °C 30.4 in /  1029.0 hPa North 11.5 mph /  18.5 km/h 11.5 mph /  18.5 km/h 69 % 0 in /  0.0 mm
05:26 47.1 °F /  8.4 °C 37 °F /  2.8 °C 30.4 in /  1029.0 hPa North 11.5 mph /  18.5 km/h 11.5 mph /  18.5 km/h 68 % 0 in /  0.0 mm
05:31 46.9 °F /  8.3 °C 37 °F /  2.8 °C 30.4 in /  1029.0 hPa North 11.5 mph /  18.5 km/h 11.5 mph /  18.5 km/h 68 % 0 in /  0.0 mm
05:36 46.9 °F /  8.3 °C 36.9 °F /  2.7 °C 30.4 in /  1029.0 hPa North 9.2 mph /  14.8 km/h 9.2 mph /  14.8 km/h 68 % 0 in /  0.0 mm
05:41 46.8 °F /  8.2 °C 36.9 °F /  2.7 °C 30.4 in /  1029.0 hPa NNE 10.4 mph /  16.7 km/h 10.4 mph /  16.7 km/h 68 % 0 in /  0.0 mm
05:46 46.8 °F /  8.2 °C 36.7 °F /  2.6 °C 30.4 in /  1029.0 hPa NNW 10.4 mph /  16.7 km/h 10.4 mph /  16.7 km/h 68 % 0 in /  0.0 mm
05:51 46.6 °F /  8.1 °C 36.7 °F /  2.6 °C 30.4 in /  1029.0 hPa NNW 9.2 mph /  14.8 km/h 9.2 mph /  14.8 km/h 68 % 0 in /  0.0 mm
05:52 46.6 °F /  8.1 °C 36.7 °F /  2.6 °C 30.4 in /  1029.0 hPa North 10.4 mph /  16.7 km/h 10.4 mph /  16.7 km/h 68 % 0 in /  0.0 mm
05:57 46.6 °F /  8.1 °C 36.7 °F /  2.6 °C 30.4 in /  1029.0 hPa North 9.2 mph /  14.8 km/h 9.2 mph /  14.8 km/h 68 % 0 in /  0.0 mm
06:02 46.6 °F /  8.1 °C 36.5 °F /  2.5 °C 30.4 in /  1029.0 hPa NNW 11.5 mph /  18.5 km/h 11.5 mph /  18.5 km/h 68 % 0 in /  0.0 mm
06:03 46.6 °F /  8.1 °C 36.5 °F /  2.5 °C 30.4 in /  1029.0 hPa North 11.5 mph /  18.5 km/h 11.5 mph /  18.5 km/h 68 % 0 in /  0.0 mm
06:08 46.4 °F /  8.0 °C 36.3 °F /  2.4 °C 30.4 in /  1029.0 hPa NNE 11.5 mph /  18.5 km/h 11.5 mph /  18.5 km/h 68 % 0 in /  0.0 mm
06:13 46.4 °F /  8.0 °C 36.3 °F /  2.4 °C 30.4 in /  1029.0 hPa NNW 9.2 mph /  14.8 km/h 9.2 mph /  14.8 km/h 68 % 0 in /  0.0 mm
06:18 46.6 °F /  8.1 °C 36.1 °F /  2.3 °C 30.4 in /  1029.0 hPa North 11.5 mph /  18.5 km/h 11.5 mph /  18.5 km/h 67 % 0 in /  0.0 mm
06:23 46.4 °F /  8.0 °C 36 °F /  2.2 °C 30.4 in /  1029.0 hPa NNE 11.5 mph /  18.5 km/h 11.5 mph /  18.5 km/h 67 % 0 in /  0.0 mm
06:28 46.4 °F /  8.0 °C 36 °F /  2.2 °C 30.4 in /  1029.3 hPa North 10.4 mph /  16.7 km/h 10.4 mph /  16.7 km/h 67 % 0 in /  0.0 mm
06:33 46.6 °F /  8.1 °C 36.1 °F /  2.3 °C 30.4 in /  1029.3 hPa North 11.5 mph /  18.5 km/h 11.5 mph /  18.5 km/h 67 % 0 in /  0.0 mm
06:38 46.4 °F /  8.0 °C 35.8 °F /  2.1 °C 30.4 in /  1029.3 hPa North 11.5 mph /  18.5 km/h 11.5 mph /  18.5 km/h 66 % 0 in /  0.0 mm
06:43 46.2 °F /  7.9 °C 35.6 °F /  2.0 °C 30.4 in /  1029.3 hPa NNE 9.2 mph /  14.8 km/h 9.2 mph /  14.8 km/h 66 % 0 in /  0.0 mm
06:48 46.4 °F /  8.0 °C 35.8 °F /  2.1 °C 30.4 in /  1029.3 hPa North 11.5 mph /  18.5 km/h 11.5 mph /  18.5 km/h 66 % 0 in /  0.0 mm
06:53 46.4 °F /  8.0 °C 35.2 °F /  1.8 °C 30.4 in /  1029.3 hPa NNE 11.5 mph /  18.5 km/h 11.5 mph /  18.5 km/h 65 % 0 in /  0.0 mm
06:58 46.4 °F /  8.0 °C 35.2 °F /  1.8 °C 30.4 in /  1029.3 hPa North 10.4 mph /  16.7 km/h 10.4 mph /  16.7 km/h 65 % 0 in /  0.0 mm
07:03 46.4 °F /  8.0 °C 34.9 °F /  1.6 °C 30.4 in /  1029.3 hPa North 11.5 mph /  18.5 km/h 11.5 mph /  18.5 km/h 64 % 0 in /  0.0 mm
07:08 46.6 °F /  8.1 °C 35.1 °F /  1.7 °C 30.4 in /  1029.3 hPa NNE 11.5 mph /  18.5 km/h 11.5 mph /  18.5 km/h 64 % 0 in /  0.0 mm
07:13 46.6 °F /  8.1 °C 35.1 °F /  1.7 °C 30.4 in /  1029.3 hPa North 11.5 mph /  18.5 km/h 11.5 mph /  18.5 km/h 64 % 0 in /  0.0 mm
07:18 46.6 °F /  8.1 °C 34.5 °F /  1.4 °C 30.4 in /  1029.7 hPa North 11.5 mph /  18.5 km/h 11.5 mph /  18.5 km/h 63 % 0 in /  0.0 mm
07:23 46.4 °F /  8.0 °C 34.5 °F /  1.4 °C 30.4 in /  1029.7 hPa North 11.5 mph /  18.5 km/h 11.5 mph /  18.5 km/h 63 % 0 in /  0.0 mm
07:28 46.4 °F /  8.0 °C 34.5 °F /  1.4 °C 30.4 in /  1029.7 hPa North 10.4 mph /  16.7 km/h 10.4 mph /  16.7 km/h 63 % 0 in /  0.0 mm
07:33 46.6 °F /  8.1 °C 34.2 °F /  1.2 °C 30.4 in /  1029.7 hPa North 12.7 mph /  20.4 km/h 12.7 mph /  20.4 km/h 62 % 0 in /  0.0 mm
07:38 46.6 °F /  8.1 °C 34.3 °F /  1.3 °C 30.4 in /  1029.7 hPa North 12.7 mph /  20.4 km/h 12.7 mph /  20.4 km/h 62 % 0 in /  0.0 mm
07:43 46.6 °F /  8.1 °C 34 °F /  1.1 °C 30.4 in /  1029.7 hPa North 11.5 mph /  18.5 km/h 11.5 mph /  18.5 km/h 61 % 0 in /  0.0 mm
07:48 46.6 °F /  8.1 °C 34.3 °F /  1.3 °C 30.4 in /  1029.7 hPa North 11.5 mph /  18.5 km/h 11.5 mph /  18.5 km/h 62 % 0 in /  0.0 mm
07:53 46.6 °F /  8.1 °C 34.2 °F /  1.2 °C 30.4 in /  1030.0 hPa North 11.5 mph /  18.5 km/h 11.5 mph /  18.5 km/h 62 % 0 in /  0.0 mm
07:58 46.6 °F /  8.1 °C 34.2 °F /  1.2 °C 30.4 in /  1030.0 hPa North 11.5 mph /  18.5 km/h 11.5 mph /  18.5 km/h 62 % 0 in /  0.0 mm
08:03 46.4 °F /  8.0 °C 34.5 °F /  1.4 °C 30.4 in /  1030.0 hPa North 10.4 mph /  16.7 km/h 10.4 mph /  16.7 km/h 63 % 0 in /  0.0 mm
08:08 46.2 °F /  7.9 °C 34.3 °F /  1.3 °C 30.4 in /  1030.0 hPa NNW 11.5 mph /  18.5 km/h 11.5 mph /  18.5 km/h 63 % 0 in /  0.0 mm
08:13 46 °F /  7.8 °C 34.2 °F /  1.2 °C 30.4 in /  1030.0 hPa North 10.4 mph /  16.7 km/h 10.4 mph /  16.7 km/h 63 % 0 in /  0.0 mm
08:18 46 °F /  7.8 °C 34.2 °F /  1.2 °C 30.4 in /  1030.4 hPa North 11.5 mph /  18.5 km/h 11.5 mph /  18.5 km/h 63 % 0 in /  0.0 mm
08:23 46 °F /  7.8 °C 34.2 °F /  1.2 °C 30.4 in /  1030.4 hPa NNE 11.5 mph /  18.5 km/h 11.5 mph /  18.5 km/h 63 % 0 in /  0.0 mm
08:28 46 °F /  7.8 °C 34.2 °F /  1.2 °C 30.4 in /  1030.4 hPa North 11.5 mph /  18.5 km/h 11.5 mph /  18.5 km/h 63 % 0 in /  0.0 mm
08:33 46 °F /  7.8 °C 33.8 °F /  1.0 °C 30.4 in /  1030.4 hPa North 11.5 mph /  18.5 km/h 11.5 mph /  18.5 km/h 62 % 0 in /  0.0 mm
08:38 46 °F /  7.8 °C 34.2 °F /  1.2 °C 30.4 in /  1030.4 hPa North 11.5 mph /  18.5 km/h 11.5 mph /  18.5 km/h 63 % 0 in /  0.0 mm
08:43 46 °F /  7.8 °C 34.2 °F /  1.2 °C 30.4 in /  1030.4 hPa North 11.5 mph /  18.5 km/h 11.5 mph /  18.5 km/h 63 % 0 in /  0.0 mm
08:48 46.2 °F /  7.9 °C 34.3 °F /  1.3 °C 30.4 in /  1030.7 hPa North 10.4 mph /  16.7 km/h 10.4 mph /  16.7 km/h 63 % 0 in /  0.0 mm
08:53 46.2 °F /  7.9 °C 34.3 °F /  1.3 °C 30.4 in /  1030.7 hPa North 11.5 mph /  18.5 km/h 11.5 mph /  18.5 km/h 63 % 0 in /  0.0 mm
08:58 46.6 °F /  8.1 °C 34.5 °F /  1.4 °C 30.4 in /  1030.7 hPa North 10.4 mph /  16.7 km/h 10.4 mph /  16.7 km/h 63 % 0 in /  0.0 mm
09:03 46.8 °F /  8.2 °C 34.9 °F /  1.6 °C 30.4 in /  1030.7 hPa North 11.5 mph /  18.5 km/h 11.5 mph /  18.5 km/h 63 % 0 in /  0.0 mm
09:08 47.3 °F /  8.5 °C 34.5 °F /  1.4 °C 30.4 in /  1030.7 hPa North 11.5 mph /  18.5 km/h 11.5 mph /  18.5 km/h 61 % 0 in /  0.0 mm
09:13 47.7 °F /  8.7 °C 34.5 °F /  1.4 °C 30.4 in /  1030.7 hPa NNE 11.5 mph /  18.5 km/h 11.5 mph /  18.5 km/h 60 % 0 in /  0.0 mm
09:18 48.2 °F /  9.0 °C 35.4 °F /  1.9 °C 30.4 in /  1030.7 hPa North 9.2 mph /  14.8 km/h 9.2 mph /  14.8 km/h 61 % 0 in /  0.0 mm
09:23 48.7 °F /  9.3 °C 35.8 °F /  2.1 °C 30.4 in /  1030.7 hPa North 11.5 mph /  18.5 km/h 11.5 mph /  18.5 km/h 61 % 0 in /  0.0 mm
09:28 48.9 °F /  9.4 °C 35.8 °F /  2.1 °C 30.4 in /  1031.0 hPa North 11.5 mph /  18.5 km/h 11.5 mph /  18.5 km/h 60 % 0 in /  0.0 mm
09:33 49.3 °F /  9.6 °C 36 °F /  2.2 °C 30.4 in /  1031.0 hPa North 9.2 mph /  14.8 km/h 9.2 mph /  14.8 km/h 60 % 0 in /  0.0 mm
09:38 49.3 °F /  9.6 °C 36.3 °F /  2.4 °C 30.4 in /  1031.0 hPa NNE 6.9 mph /  11.1 km/h 6.9 mph /  11.1 km/h 61 % 0 in /  0.0 mm
09:43 50.2 °F /  10.1 °C 38.5 °F /  3.6 °C 30.4 in /  1031.0 hPa NNE 10.4 mph /  16.7 km/h 10.4 mph /  16.7 km/h 64 % 0 in /  0.0 mm
09:48 50.7 °F /  10.4 °C 39 °F /  3.9 °C 30.4 in /  1031.0 hPa North 8.1 mph /  13.0 km/h 8.1 mph /  13.0 km/h 64 % 0 in /  0.0 mm
09:53 52.3 °F /  11.3 °C 42.4 °F /  5.8 °C 30.4 in /  1031.0 hPa NNE 10.4 mph /  16.7 km/h 10.4 mph /  16.7 km/h 69 % 0 in /  0.0 mm
09:54 52.3 °F /  11.3 °C 41.7 °F /  5.4 °C 30.4 in /  1031.0 hPa NNE 10.4 mph /  16.7 km/h 10.4 mph /  16.7 km/h 67 % 0 in /  0.0 mm
09:59 53.1 °F /  11.7 °C 41.9 °F /  5.5 °C 30.4 in /  1031.0 hPa NE 8.1 mph /  13.0 km/h 8.1 mph /  13.0 km/h 66 % 0 in /  0.0 mm
10:04 54.7 °F /  12.6 °C 45 °F /  7.2 °C 30.5 in /  1031.4 hPa NE 13 mph /  20.9 km/h 13 mph /  20.9 km/h 70 % 0 in /  0.0 mm
10:09 55.6 °F /  13.1 °C 45.7 °F /  7.6 °C 30.5 in /  1031.4 hPa ENE 13.8 mph /  22.2 km/h 13.8 mph /  22.2 km/h 69 % 0 in /  0.0 mm
10:14 55.8 °F /  13.2 °C 45 °F /  7.2 °C 30.5 in /  1031.4 hPa ENE 16.1 mph /  25.9 km/h 16.1 mph /  25.9 km/h 67 % 0 in /  0.0 mm
10:19 55.9 °F /  13.3 °C 45.5 °F /  7.5 °C 30.5 in /  1031.4 hPa ENE 15 mph /  24.1 km/h 15 mph /  24.1 km/h 68 % 0 in /  0.0 mm
10:24 55.9 °F /  13.3 °C 45.1 °F /  7.3 °C 30.5 in /  1031.4 hPa NE 16.1 mph /  25.9 km/h 16.1 mph /  25.9 km/h 67 % 0 in /  0.0 mm
10:29 55.9 °F /  13.3 °C 45.7 °F /  7.6 °C 30.5 in /  1031.7 hPa ENE 15 mph /  24.1 km/h 15 mph /  24.1 km/h 68 % 0 in /  0.0 mm
10:34 56.1 °F /  13.4 °C 45.9 °F /  7.7 °C 30.5 in /  1031.7 hPa ENE 16.1 mph /  25.9 km/h 16.1 mph /  25.9 km/h 68 % 0 in /  0.0 mm
10:39 56.1 °F /  13.4 °C 45.3 °F /  7.4 °C 30.5 in /  1031.7 hPa ENE 11.5 mph /  18.5 km/h 11.5 mph /  18.5 km/h 67 % 0 in /  0.0 mm
10:44 56.1 °F /  13.4 °C 45.9 °F /  7.7 °C 30.5 in /  1031.7 hPa ENE 15 mph /  24.1 km/h 15 mph /  24.1 km/h 68 % 0 in /  0.0 mm
10:49 56.3 °F /  13.5 °C 45.9 °F /  7.7 °C 30.5 in /  1031.7 hPa ENE 17 mph /  27.4 km/h 17 mph /  27.4 km/h 68 % 0 in /  0.0 mm
10:54 56.3 °F /  13.5 °C 45.9 °F /  7.7 °C 30.5 in /  1031.7 hPa East 15 mph /  24.1 km/h 15 mph /  24.1 km/h 68 % 0 in /  0.0 mm
10:59 56.3 °F /  13.5 °C 45.9 °F /  7.7 °C 30.5 in /  1032.1 hPa ENE 15 mph /  24.1 km/h 15 mph /  24.1 km/h 68 % 0 in /  0.0 mm
11:04 56.5 °F /  13.6 °C 46 °F /  7.8 °C 30.5 in /  1032.1 hPa East 15 mph /  24.1 km/h 15 mph /  24.1 km/h 68 % 0 in /  0.0 mm
11:09 56.7 °F /  13.7 °C 46.2 °F /  7.9 °C 30.5 in /  1032.1 hPa East 14 mph /  22.5 km/h 14 mph /  22.5 km/h 68 % 0 in /  0.0 mm
11:14 56.7 °F /  13.7 °C 45.3 °F /  7.4 °C 30.5 in /  1032.1 hPa ENE 15 mph /  24.1 km/h 15 mph /  24.1 km/h 66 % 0 in /  0.0 mm
11:19 56.7 °F /  13.7 °C 45.9 °F /  7.7 °C 30.5 in /  1032.1 hPa East 13 mph /  20.9 km/h 13 mph /  20.9 km/h 67 % 0 in /  0.0 mm
11:24 56.7 °F /  13.7 °C 45.5 °F /  7.5 °C 30.5 in /  1032.1 hPa ENE 17.3 mph /  27.8 km/h 17.3 mph /  27.8 km/h 66 % 0 in /  0.0 mm
11:29 56.7 °F /  13.7 °C 45.5 °F /  7.5 °C 30.5 in /  1032.1 hPa East 17 mph /  27.4 km/h 17 mph /  27.4 km/h 66 % 0 in /  0.0 mm
11:34 56.8 °F /  13.8 °C 46.4 °F /  8.0 °C 30.5 in /  1032.1 hPa ENE 16.1 mph /  25.9 km/h 16.1 mph /  25.9 km/h 68 % 0 in /  0.0 mm
11:39 56.8 °F /  13.8 °C 46 °F /  7.8 °C 30.5 in /  1032.1 hPa ENE 17 mph /  27.4 km/h 17 mph /  27.4 km/h 67 % 0 in /  0.0 mm
11:44 56.8 °F /  13.8 °C 46.4 °F /  8.0 °C 30.5 in /  1032.1 hPa East 13.8 mph /  22.2 km/h 13.8 mph /  22.2 km/h 68 % 0 in /  0.0 mm
11:49 56.8 °F /  13.8 °C 46.8 °F /  8.2 °C 30.5 in /  1032.1 hPa East 14 mph /  22.5 km/h 14 mph /  22.5 km/h 69 % 0 in /  0.0 mm
11:54 56.8 °F /  13.8 °C 46 °F /  7.8 °C 30.5 in /  1032.1 hPa ESE 15 mph /  24.1 km/h 15 mph /  24.1 km/h 67 % 0 in /  0.0 mm
11:59 56.8 °F /  13.8 °C 45.7 °F /  7.6 °C 30.5 in /  1032.1 hPa ESE 16.1 mph /  25.9 km/h 16.1 mph /  25.9 km/h 66 % 0 in /  0.0 mm
12:04 57 °F /  13.9 °C 46 °F /  7.8 °C 30.5 in /  1032.1 hPa East 17.3 mph /  27.8 km/h 17.3 mph /  27.8 km/h 67 % 0 in /  0.0 mm
12:09 57 °F /  13.9 °C 46 °F /  7.8 °C 30.5 in /  1032.1 hPa ESE 12.7 mph /  20.4 km/h 12.7 mph /  20.4 km/h 67 % 0 in /  0.0 mm
12:14 57 °F /  13.9 °C 46.6 °F /  8.1 °C 30.5 in /  1032.1 hPa East 14 mph /  22.5 km/h 14 mph /  22.5 km/h 68 % 0 in /  0.0 mm
12:19 57 °F /  13.9 °C 46.6 °F /  8.1 °C 30.5 in /  1032.1 hPa ESE 17.3 mph /  27.8 km/h 17.3 mph /  27.8 km/h 68 % 0 in /  0.0 mm
12:24 57 °F /  13.9 °C 46.6 °F /  8.1 °C 30.5 in /  1032.1 hPa ESE 16.1 mph /  25.9 km/h 16.1 mph /  25.9 km/h 68 % 0 in /  0.0 mm
12:29 57 °F /  13.9 °C 46.2 °F /  7.9 °C 30.5 in /  1032.1 hPa ESE 18.4 mph /  29.6 km/h 18.4 mph /  29.6 km/h 67 % 0 in /  0.0 mm
12:34 57 °F /  13.9 °C 46 °F /  7.8 °C 30.5 in /  1032.1 hPa ESE 16.1 mph /  25.9 km/h 16.1 mph /  25.9 km/h 67 % 0 in /  0.0 mm
12:35 57 °F /  13.9 °C 46 °F /  7.8 °C 30.5 in /  1032.1 hPa ESE 15 mph /  24.1 km/h 17 mph /  27.4 km/h 67 % 0 in /  0.0 mm
12:40 57 °F /  13.9 °C 45.7 °F /  7.6 °C 30.5 in /  1032.1 hPa East 18.4 mph /  29.6 km/h 18.4 mph /  29.6 km/h 66 % 0 in /  0.0 mm
12:45 57 °F /  13.9 °C 46 °F /  7.8 °C 30.5 in /  1032.1 hPa ESE 14 mph /  22.5 km/h 17 mph /  27.4 km/h 67 % 0 in /  0.0 mm
12:50 56.8 °F /  13.8 °C 45.7 °F /  7.6 °C 30.5 in /  1032.1 hPa ESE 15 mph /  24.1 km/h 17 mph /  27.4 km/h 66 % 0 in /  0.0 mm
12:55 57 °F /  13.9 °C 46.9 °F /  8.3 °C 30.5 in /  1031.7 hPa ESE 17.3 mph /  27.8 km/h 17.3 mph /  27.8 km/h 69 % 0 in /  0.0 mm
13:00 57 °F /  13.9 °C 45.3 °F /  7.4 °C 30.5 in /  1031.7 hPa ESE 16 mph /  25.7 km/h 20 mph /  32.2 km/h 65 % 0 in /  0.0 mm
13:05 57 °F /  13.9 °C 46.2 °F /  7.9 °C 30.5 in /  1031.7 hPa ESE 15 mph /  24.1 km/h 17 mph /  27.4 km/h 67 % 0 in /  0.0 mm
13:10 57.2 °F /  14.0 °C 46.8 °F /  8.2 °C 30.5 in /  1031.7 hPa East 17.3 mph /  27.8 km/h 17.3 mph /  27.8 km/h 68 % 0 in /  0.0 mm
13:15 57 °F /  13.9 °C 46.2 °F /  7.9 °C 30.5 in /  1031.7 hPa ESE 15 mph /  24.1 km/h 21 mph /  33.8 km/h 67 % 0 in /  0.0 mm
13:20 57 °F /  13.9 °C 46.2 °F /  7.9 °C 30.5 in /  1031.7 hPa East 15 mph /  24.1 km/h 15 mph /  24.1 km/h 67 % 0 in /  0.0 mm
13:25 57 °F /  13.9 °C 46.6 °F /  8.1 °C 30.5 in /  1031.7 hPa ESE 15 mph /  24.1 km/h 17 mph /  27.4 km/h 68 % 0 in /  0.0 mm
13:30 57 °F /  13.9 °C 46.9 °F /  8.3 °C 30.5 in /  1031.4 hPa ESE 16.1 mph /  25.9 km/h 16.1 mph /  25.9 km/h 69 % 0 in /  0.0 mm
13:35 57.2 °F /  14.0 °C 47.1 °F /  8.4 °C 30.5 in /  1031.4 hPa ESE 18.4 mph /  29.6 km/h 18.4 mph /  29.6 km/h 69 % 0 in /  0.0 mm
13:40 57 °F /  13.9 °C 46 °F /  7.8 °C 30.5 in /  1031.4 hPa ESE 15 mph /  24.1 km/h 18 mph /  29.0 km/h 67 % 0 in /  0.0 mm
13:45 57.2 °F /  14.0 °C 47.5 °F /  8.6 °C 30.5 in /  1031.4 hPa East 18.4 mph /  29.6 km/h 18.4 mph /  29.6 km/h 70 % 0 in /  0.0 mm
13:50 57 °F /  13.9 °C 46.2 °F /  7.9 °C 30.5 in /  1031.4 hPa East 16 mph /  25.7 km/h 16 mph /  25.7 km/h 67 % 0 in /  0.0 mm
13:55 57.2 °F /  14.0 °C 46.8 °F /  8.2 °C 30.5 in /  1031.4 hPa ESE 16 mph /  25.7 km/h 20 mph /  32.2 km/h 68 % 0 in /  0.0 mm
14:00 57 °F /  13.9 °C 46.6 °F /  8.1 °C 30.5 in /  1031.4 hPa ESE 19.6 mph /  31.5 km/h 19.6 mph /  31.5 km/h 68 % 0 in /  0.0 mm
14:10 57 °F /  13.9 °C 46.2 °F /  7.9 °C 30.5 in /  1031.4 hPa ESE 18 mph /  29.0 km/h 22 mph /  35.4 km/h 67 % 0 in /  0.0 mm
14:15 57 °F /  13.9 °C 46.2 °F /  7.9 °C 30.5 in /  1031.4 hPa East 15 mph /  24.1 km/h 20 mph /  32.2 km/h 67 % 0 in /  0.0 mm
14:20 57 °F /  13.9 °C 46.6 °F /  8.1 °C 30.5 in /  1031.4 hPa ESE 19.6 mph /  31.5 km/h 19.6 mph /  31.5 km/h 68 % 0 in /  0.0 mm
14:25 57 °F /  13.9 °C 47.5 °F /  8.6 °C 30.4 in /  1031.0 hPa East 16 mph /  25.7 km/h 20 mph /  32.2 km/h 70 % 0 in /  0.0 mm
14:30 57 °F /  13.9 °C 46.9 °F /  8.3 °C 30.4 in /  1031.0 hPa East 24.2 mph /  38.9 km/h 24.2 mph /  38.9 km/h 69 % 0 in /  0.0 mm
14:35 57.2 °F /  14.0 °C 47.5 °F /  8.6 °C 30.4 in /  1031.0 hPa East 23 mph /  37.0 km/h 23 mph /  37.0 km/h 70 % 0 in /  0.0 mm
14:40 57 °F /  13.9 °C 47.5 °F /  8.6 °C 30.4 in /  1031.0 hPa East 19.6 mph /  31.5 km/h 19.6 mph /  31.5 km/h 70 % 0 in /  0.0 mm
14:45 57.2 °F /  14.0 °C 47.1 °F /  8.4 °C 30.4 in /  1031.0 hPa East 18.4 mph /  29.6 km/h 18.4 mph /  29.6 km/h 69 % 0 in /  0.0 mm
14:50 57 °F /  13.9 °C 46.2 °F /  7.9 °C 30.4 in /  1031.0 hPa East 13 mph /  20.9 km/h 16 mph /  25.7 km/h 67 % 0 in /  0.0 mm
14:55 57.4 °F /  14.1 °C 46.9 °F /  8.3 °C 30.4 in /  1031.0 hPa East 14 mph /  22.5 km/h 18 mph /  29.0 km/h 68 % 0 in /  0.0 mm
15:00 57.4 °F /  14.1 °C 47.3 °F /  8.5 °C 30.4 in /  1031.0 hPa East 18.4 mph /  29.6 km/h 18.4 mph /  29.6 km/h 69 % 0 in /  0.0 mm
15:05 57.4 °F /  14.1 °C 46.8 °F /  8.2 °C 30.4 in /  1031.0 hPa East 17 mph /  27.4 km/h 21 mph /  33.8 km/h 68 % 0 in /  0.0 mm
15:10 57.4 °F /  14.1 °C 45.7 °F /  7.6 °C 30.4 in /  1031.0 hPa ENE 19.6 mph /  31.5 km/h 19.6 mph /  31.5 km/h 65 % 0 in /  0.0 mm
15:15 57.4 °F /  14.1 °C 45.7 °F /  7.6 °C 30.4 in /  1031.0 hPa ENE 18.4 mph /  29.6 km/h 18.4 mph /  29.6 km/h 65 % 0 in /  0.0 mm
15:20 57.6 °F /  14.2 °C 46.6 °F /  8.1 °C 30.4 in /  1031.0 hPa ENE 17.3 mph /  27.8 km/h 17.3 mph /  27.8 km/h 67 % 0 in /  0.0 mm
15:25 57.6 °F /  14.2 °C 46.2 °F /  7.9 °C 30.4 in /  1031.0 hPa ENE 18.4 mph /  29.6 km/h 18.4 mph /  29.6 km/h 66 % 0 in /  0.0 mm
15:30 57.6 °F /  14.2 °C 46.2 °F /  7.9 °C 30.4 in /  1031.0 hPa ENE 14 mph /  22.5 km/h 20 mph /  32.2 km/h 66 % 0 in /  0.0 mm
15:31 57.6 °F /  14.2 °C 46.2 °F /  7.9 °C 30.4 in /  1031.0 hPa East 15 mph /  24.1 km/h 15 mph /  24.1 km/h 66 % 0 in /  0.0 mm
15:36 57.6 °F /  14.2 °C 46.8 °F /  8.2 °C 30.4 in /  1031.0 hPa East 18.4 mph /  29.6 km/h 18.4 mph /  29.6 km/h 67 % 0 in /  0.0 mm
15:41 57.6 °F /  14.2 °C 46.2 °F /  7.9 °C 30.4 in /  1031.0 hPa East 19.6 mph /  31.5 km/h 19.6 mph /  31.5 km/h 66 % 0 in /  0.0 mm
15:46 57.6 °F /  14.2 °C 47.5 °F /  8.6 °C 30.4 in /  1031.0 hPa East 15 mph /  24.1 km/h 15 mph /  24.1 km/h 69 % 0 in /  0.0 mm
15:51 57.7 °F /  14.3 °C 45.7 °F /  7.6 °C 30.4 in /  1031.0 hPa East 21 mph /  33.8 km/h 21 mph /  33.8 km/h 64 % 0 in /  0.0 mm
15:56 57.7 °F /  14.3 °C 45.7 °F /  7.6 °C 30.4 in /  1031.0 hPa East 19.6 mph /  31.5 km/h 19.6 mph /  31.5 km/h 64 % 0 in /  0.0 mm
15:57 57.7 °F /  14.3 °C 45.7 °F /  7.6 °C 30.4 in /  1031.0 hPa East 19.6 mph /  31.5 km/h 19.6 mph /  31.5 km/h 64 % 0 in /  0.0 mm
16:02 57.7 °F /  14.3 °C 45.7 °F /  7.6 °C 30.4 in /  1031.0 hPa East 18.4 mph /  29.6 km/h 18.4 mph /  29.6 km/h 64 % 0 in /  0.0 mm
16:07 57.7 °F /  14.3 °C 46.4 °F /  8.0 °C 30.4 in /  1031.0 hPa East 18.4 mph /  29.6 km/h 18.4 mph /  29.6 km/h 66 % 0 in /  0.0 mm
16:12 57.6 °F /  14.2 °C 45.3 °F /  7.4 °C 30.4 in /  1031.0 hPa ESE 19.6 mph /  31.5 km/h 19.6 mph /  31.5 km/h 64 % 0 in /  0.0 mm
16:17 57.6 °F /  14.2 °C 45 °F /  7.2 °C 30.4 in /  1031.0 hPa East 19 mph /  30.6 km/h 19 mph /  30.6 km/h 63 % 0 in /  0.0 mm
16:22 57.7 °F /  14.3 °C 44.8 °F /  7.1 °C 30.4 in /  1031.0 hPa East 18.4 mph /  29.6 km/h 18.4 mph /  29.6 km/h 62 % 0 in /  0.0 mm
16:27 57.7 °F /  14.3 °C 45.1 °F /  7.3 °C 30.4 in /  1031.0 hPa East 21 mph /  33.8 km/h 21 mph /  33.8 km/h 63 % 0 in /  0.0 mm
16:32 57.6 °F /  14.2 °C 45.9 °F /  7.7 °C 30.4 in /  1031.0 hPa East 20.7 mph /  33.3 km/h 20.7 mph /  33.3 km/h 65 % 0 in /  0.0 mm
16:37 57.4 °F /  14.1 °C 46 °F /  7.8 °C 30.4 in /  1031.0 hPa East 19.6 mph /  31.5 km/h 19.6 mph /  31.5 km/h 66 % 0 in /  0.0 mm
16:42 57.6 °F /  14.2 °C 45.3 °F /  7.4 °C 30.4 in /  1031.0 hPa East 20.7 mph /  33.3 km/h 20.7 mph /  33.3 km/h 64 % 0 in /  0.0 mm
16:47 57.6 °F /  14.2 °C 46.2 °F /  7.9 °C 30.4 in /  1031.0 hPa ENE 21.9 mph /  35.2 km/h 21.9 mph /  35.2 km/h 66 % 0 in /  0.0 mm
16:52 57.2 °F /  14.0 °C 46.2 °F /  7.9 °C 30.4 in /  1031.0 hPa East 20.7 mph /  33.3 km/h 20.7 mph /  33.3 km/h 67 % 0 in /  0.0 mm
16:57 57.2 °F /  14.0 °C 46.8 °F /  8.2 °C 30.4 in /  1031.0 hPa East 18.4 mph /  29.6 km/h 18.4 mph /  29.6 km/h 68 % 0 in /  0.0 mm
17:02 57.4 °F /  14.1 °C 46.8 °F /  8.2 °C 30.4 in /  1031.0 hPa East 16.1 mph /  25.9 km/h 16.1 mph /  25.9 km/h 68 % 0 in /  0.0 mm
17:07 57.4 °F /  14.1 °C 46.8 °F /  8.2 °C 30.4 in /  1031.0 hPa ENE 19.6 mph /  31.5 km/h 19.6 mph /  31.5 km/h 68 % 0 in /  0.0 mm
17:12 57.4 °F /  14.1 °C 46 °F /  7.8 °C 30.4 in /  1031.0 hPa East 20.7 mph /  33.3 km/h 20.7 mph /  33.3 km/h 66 % 0 in /  0.0 mm
17:17 57.2 °F /  14.0 °C 45.5 °F /  7.5 °C 30.5 in /  1031.4 hPa East 18.4 mph /  29.6 km/h 18.4 mph /  29.6 km/h 65 % 0 in /  0.0 mm
17:22 57.2 °F /  14.0 °C 45.9 °F /  7.7 °C 30.5 in /  1031.4 hPa East 17.3 mph /  27.8 km/h 17.3 mph /  27.8 km/h 66 % 0 in /  0.0 mm
17:27 57.2 °F /  14.0 °C 46.8 °F /  8.2 °C 30.5 in /  1031.4 hPa ENE 17.3 mph /  27.8 km/h 17.3 mph /  27.8 km/h 68 % 0 in /  0.0 mm
17:32 57.2 °F /  14.0 °C 45.9 °F /  7.7 °C 30.5 in /  1031.4 hPa East 16.1 mph /  25.9 km/h 16.1 mph /  25.9 km/h 66 % 0 in /  0.0 mm
17:37 57.4 °F /  14.1 °C 46.4 °F /  8.0 °C 30.5 in /  1031.4 hPa East 17.3 mph /  27.8 km/h 17.3 mph /  27.8 km/h 67 % 0 in /  0.0 mm
17:42 57.4 °F /  14.1 °C 46.8 °F /  8.2 °C 30.5 in /  1031.4 hPa ENE 17.3 mph /  27.8 km/h 17.3 mph /  27.8 km/h 68 % 0 in /  0.0 mm
17:47 57.4 °F /  14.1 °C 47.1 °F /  8.4 °C 30.5 in /  1031.4 hPa East 19.6 mph /  31.5 km/h 19.6 mph /  31.5 km/h 69 % 0 in /  0.0 mm
17:52 57.2 °F /  14.0 °C 46.8 °F /  8.2 °C 30.5 in /  1031.4 hPa East 19.6 mph /  31.5 km/h 19.6 mph /  31.5 km/h 68 % 0 in /  0.0 mm
17:57 57 °F /  13.9 °C 46.6 °F /  8.1 °C 30.5 in /  1031.7 hPa ENE 15 mph /  24.1 km/h 15 mph /  24.1 km/h 68 % 0 in /  0.0 mm
18:02 56.8 °F /  13.8 °C 46.8 °F /  8.2 °C 30.5 in /  1031.7 hPa East 19.6 mph /  31.5 km/h 19.6 mph /  31.5 km/h 69 % 0 in /  0.0 mm
18:03 56.8 °F /  13.8 °C 46.4 °F /  8.0 °C 30.5 in /  1031.7 hPa ENE 19.6 mph /  31.5 km/h 19.6 mph /  31.5 km/h 68 % 0 in /  0.0 mm
18:08 57 °F /  13.9 °C 47.3 °F /  8.5 °C 30.5 in /  1031.7 hPa East 15 mph /  24.1 km/h 15 mph /  24.1 km/h 70 % 0 in /  0.0 mm
18:13 56.8 °F /  13.8 °C 46.8 °F /  8.2 °C 30.5 in /  1031.7 hPa ENE 15 mph /  24.1 km/h 15 mph /  24.1 km/h 69 % 0 in /  0.0 mm
18:18 56.7 °F /  13.7 °C 46.2 °F /  7.9 °C 30.5 in /  1031.7 hPa ENE 13.8 mph /  22.2 km/h 13.8 mph /  22.2 km/h 68 % 0 in /  0.0 mm
18:23 56.7 °F /  13.7 °C 46.6 °F /  8.1 °C 30.5 in /  1031.7 hPa ENE 12 mph /  19.3 km/h 12 mph /  19.3 km/h 69 % 0 in /  0.0 mm
18:28 56.5 °F /  13.6 °C 46.4 °F /  8.0 °C 30.5 in /  1031.7 hPa ENE 13.8 mph /  22.2 km/h 13.8 mph /  22.2 km/h 69 % 0 in /  0.0 mm
18:33 56.5 °F /  13.6 °C 46.4 °F /  8.0 °C 30.5 in /  1031.7 hPa ENE 13.8 mph /  22.2 km/h 13.8 mph /  22.2 km/h 69 % 0 in /  0.0 mm
18:38 56.3 °F /  13.5 °C 46.2 °F /  7.9 °C 30.5 in /  1032.1 hPa ENE 11.5 mph /  18.5 km/h 11.5 mph /  18.5 km/h 69 % 0 in /  0.0 mm
18:43 56.1 °F /  13.4 °C 45.9 °F /  7.7 °C 30.5 in /  1032.1 hPa ENE 11.5 mph /  18.5 km/h 11.5 mph /  18.5 km/h 68 % 0 in /  0.0 mm
18:48 56.1 °F /  13.4 °C 46.2 °F /  7.9 °C 30.5 in /  1032.1 hPa ENE 11.5 mph /  18.5 km/h 11.5 mph /  18.5 km/h 69 % 0 in /  0.0 mm
18:53 56.1 °F /  13.4 °C 46 °F /  7.8 °C 30.5 in /  1032.1 hPa ENE 11.5 mph /  18.5 km/h 11.5 mph /  18.5 km/h 69 % 0 in /  0.0 mm
18:58 56.1 °F /  13.4 °C 46 °F /  7.8 °C 30.5 in /  1032.1 hPa ENE 11.5 mph /  18.5 km/h 11.5 mph /  18.5 km/h 69 % 0 in /  0.0 mm
19:03 56.1 °F /  13.4 °C 45.7 °F /  7.6 °C 30.5 in /  1032.1 hPa NE 11.5 mph /  18.5 km/h 11.5 mph /  18.5 km/h 68 % 0 in /  0.0 mm
19:08 55.9 °F /  13.3 °C 45.7 °F /  7.6 °C 30.5 in /  1032.1 hPa NE 12.7 mph /  20.4 km/h 12.7 mph /  20.4 km/h 68 % 0 in /  0.0 mm
19:13 55.9 °F /  13.3 °C 45.5 °F /  7.5 °C 30.5 in /  1032.1 hPa NE 10.4 mph /  16.7 km/h 10.4 mph /  16.7 km/h 68 % 0 in /  0.0 mm
19:23 55.9 °F /  13.3 °C 45.5 °F /  7.5 °C 30.5 in /  1032.4 hPa NE 10.4 mph /  16.7 km/h 10.4 mph /  16.7 km/h 68 % 0 in /  0.0 mm
19:28 55.8 °F /  13.2 °C 45 °F /  7.2 °C 30.5 in /  1032.4 hPa NE 11 mph /  17.7 km/h 11 mph /  17.7 km/h 67 % 0 in /  0.0 mm
19:33 55.9 °F /  13.3 °C 45.5 °F /  7.5 °C 30.5 in /  1032.4 hPa NNE 10.4 mph /  16.7 km/h 10.4 mph /  16.7 km/h 68 % 0 in /  0.0 mm
19:38 55.8 °F /  13.2 °C 45.3 °F /  7.4 °C 30.5 in /  1032.4 hPa NE 10.4 mph /  16.7 km/h 10.4 mph /  16.7 km/h 68 % 0 in /  0.0 mm
19:43 55.8 °F /  13.2 °C 45.3 °F /  7.4 °C 30.5 in /  1032.4 hPa NNE 9.2 mph /  14.8 km/h 9.2 mph /  14.8 km/h 68 % 0 in /  0.0 mm
19:48 55.8 °F /  13.2 °C 45.3 °F /  7.4 °C 30.5 in /  1032.4 hPa NE 9.2 mph /  14.8 km/h 9.2 mph /  14.8 km/h 68 % 0 in /  0.0 mm
19:53 55.8 °F /  13.2 °C 45.9 °F /  7.7 °C 30.5 in /  1032.4 hPa NE 8.1 mph /  13.0 km/h 8.1 mph /  13.0 km/h 69 % 0 in /  0.0 mm
19:58 55.8 °F /  13.2 °C 45.7 °F /  7.6 °C 30.5 in /  1032.7 hPa NE 8.1 mph /  13.0 km/h 8.1 mph /  13.0 km/h 69 % 0 in /  0.0 mm
20:03 55.8 °F /  13.2 °C 45.7 °F /  7.6 °C 30.5 in /  1032.4 hPa NE 10.4 mph /  16.7 km/h 10.4 mph /  16.7 km/h 69 % 0 in /  0.0 mm
20:08 55.9 °F /  13.3 °C 46.2 °F /  7.9 °C 30.5 in /  1032.7 hPa NE 10.4 mph /  16.7 km/h 10.4 mph /  16.7 km/h 70 % 0 in /  0.0 mm
20:13 55.9 °F /  13.3 °C 46 °F /  7.8 °C 30.5 in /  1032.7 hPa ENE 11.5 mph /  18.5 km/h 11.5 mph /  18.5 km/h 69 % 0 in /  0.0 mm
20:18 56.1 °F /  13.4 °C 46.2 °F /  7.9 °C 30.5 in /  1032.7 hPa ENE 10.4 mph /  16.7 km/h 10.4 mph /  16.7 km/h 69 % 0 in /  0.0 mm
20:23 56.1 °F /  13.4 °C 46.4 °F /  8.0 °C 30.5 in /  1032.7 hPa NE 10.4 mph /  16.7 km/h 10.4 mph /  16.7 km/h 70 % 0 in /  0.0 mm
20:28 56.1 °F /  13.4 °C 46.6 °F /  8.1 °C 30.5 in /  1032.7 hPa ENE 10.4 mph /  16.7 km/h 10.4 mph /  16.7 km/h 70 % 0 in /  0.0 mm
20:33 56.1 °F /  13.4 °C 46.6 °F /  8.1 °C 30.5 in /  1032.7 hPa NE 9.2 mph /  14.8 km/h 9.2 mph /  14.8 km/h 70 % 0 in /  0.0 mm
20:38 55.9 °F /  13.3 °C 46.8 °F /  8.2 °C 30.5 in /  1032.7 hPa NE 11.5 mph /  18.5 km/h 11.5 mph /  18.5 km/h 71 % 0 in /  0.0 mm
20:43 56.1 °F /  13.4 °C 46.8 °F /  8.2 °C 30.5 in /  1032.7 hPa ENE 10.4 mph /  16.7 km/h 10.4 mph /  16.7 km/h 71 % 0 in /  0.0 mm
20:48 56.1 °F /  13.4 °C 46.9 °F /  8.3 °C 30.5 in /  1032.7 hPa NE 9.2 mph /  14.8 km/h 9.2 mph /  14.8 km/h 71 % 0 in /  0.0 mm
20:53 56.1 °F /  13.4 °C 46.8 °F /  8.2 °C 30.5 in /  1032.7 hPa NE 10.4 mph /  16.7 km/h 10.4 mph /  16.7 km/h 71 % 0 in /  0.0 mm
20:58 55.9 °F /  13.3 °C 46.4 °F /  8.0 °C 30.5 in /  1032.7 hPa NE 8.1 mph /  13.0 km/h 8.1 mph /  13.0 km/h 70 % 0 in /  0.0 mm
21:03 55.9 °F /  13.3 °C 46.8 °F /  8.2 °C 30.5 in /  1032.7 hPa NE 8.1 mph /  13.0 km/h 8.1 mph /  13.0 km/h 71 % 0 in /  0.0 mm
21:08 55.9 °F /  13.3 °C 46.6 °F /  8.1 °C 30.5 in /  1033.1 hPa NE 6.9 mph /  11.1 km/h 6.9 mph /  11.1 km/h 71 % 0 in /  0.0 mm
21:13 55.6 °F /  13.1 °C 46.2 °F /  7.9 °C 30.5 in /  1033.1 hPa NNE 5.8 mph /  9.3 km/h 5.8 mph /  9.3 km/h 71 % 0 in /  0.0 mm
21:18 54.9 °F /  12.7 °C 45.7 °F /  7.6 °C 30.5 in /  1033.1 hPa NE 9.2 mph /  14.8 km/h 9.2 mph /  14.8 km/h 71 % 0 in /  0.0 mm
21:23 54.3 °F /  12.4 °C 45.7 °F /  7.6 °C 30.5 in /  1033.1 hPa NE 3.5 mph /  5.6 km/h 3.5 mph /  5.6 km/h 72 % 0 in /  0.0 mm
21:28 54.7 °F /  12.6 °C 45.9 °F /  7.7 °C 30.5 in /  1033.1 hPa NE 8.1 mph /  13.0 km/h 8.1 mph /  13.0 km/h 72 % 0 in /  0.0 mm
21:33 55.2 °F /  12.9 °C 46.8 °F /  8.2 °C 30.5 in /  1033.1 hPa NE 10.4 mph /  16.7 km/h 10.4 mph /  16.7 km/h 73 % 0 in /  0.0 mm
21:38 55.6 °F /  13.1 °C 46.8 °F /  8.2 °C 30.5 in /  1033.1 hPa NE 8.1 mph /  13.0 km/h 8.1 mph /  13.0 km/h 72 % 0 in /  0.0 mm
21:43 55.6 °F /  13.1 °C 46.8 °F /  8.2 °C 30.5 in /  1033.1 hPa NE 5.8 mph /  9.3 km/h 5.8 mph /  9.3 km/h 72 % 0 in /  0.0 mm
21:48 55 °F /  12.8 °C 46.2 °F /  7.9 °C 30.5 in /  1033.1 hPa NNE 6.9 mph /  11.1 km/h 6.9 mph /  11.1 km/h 72 % 0 in /  0.0 mm
21:53 54.5 °F /  12.5 °C 45.3 °F /  7.4 °C 30.5 in /  1033.1 hPa NNE 3.5 mph /  5.6 km/h 3.5 mph /  5.6 km/h 71 % 0 in /  0.0 mm
21:58 54.7 °F /  12.6 °C 46.6 °F /  8.1 °C 30.5 in /  1033.1 hPa ENE 9.2 mph /  14.8 km/h 9.2 mph /  14.8 km/h 74 % 0 in /  0.0 mm
22:03 55.8 °F /  13.2 °C 47.1 °F /  8.4 °C 30.5 in /  1033.1 hPa ENE 9 mph /  14.5 km/h 9 mph /  14.5 km/h 73 % 0 in /  0.0 mm
22:08 56.1 °F /  13.4 °C 47.3 °F /  8.5 °C 30.5 in /  1033.1 hPa NE 11.5 mph /  18.5 km/h 11.5 mph /  18.5 km/h 72 % 0 in /  0.0 mm
22:13 56.5 °F /  13.6 °C 47.1 °F /  8.4 °C 30.5 in /  1033.1 hPa NNE 11.5 mph /  18.5 km/h 11.5 mph /  18.5 km/h 71 % 0 in /  0.0 mm
22:18 56.7 °F /  13.7 °C 47.7 °F /  8.7 °C 30.5 in /  1033.1 hPa ENE 10.4 mph /  16.7 km/h 10.4 mph /  16.7 km/h 72 % 0 in /  0.0 mm
22:23 56.7 °F /  13.7 °C 47.3 °F /  8.5 °C 30.5 in /  1033.1 hPa NE 11.5 mph /  18.5 km/h 11.5 mph /  18.5 km/h 71 % 0 in /  0.0 mm
22:28 56.7 °F /  13.7 °C 47.8 °F /  8.8 °C 30.5 in /  1033.4 hPa ENE 10.4 mph /  16.7 km/h 10.4 mph /  16.7 km/h 72 % 0 in /  0.0 mm
22:33 56.7 °F /  13.7 °C 47.8 °F /  8.8 °C 30.5 in /  1033.4 hPa ENE 9.2 mph /  14.8 km/h 9.2 mph /  14.8 km/h 72 % 0 in /  0.0 mm
22:38 56.7 °F /  13.7 °C 47.8 °F /  8.8 °C 30.5 in /  1033.4 hPa ENE 9.2 mph /  14.8 km/h 9.2 mph /  14.8 km/h 72 % 0 in /  0.0 mm
22:43 56.5 °F /  13.6 °C 47.7 °F /  8.7 °C 30.5 in /  1033.4 hPa NE 11.5 mph /  18.5 km/h 11.5 mph /  18.5 km/h 72 % 0 in /  0.0 mm
22:48 56.5 °F /  13.6 °C 47.5 °F /  8.6 °C 30.5 in /  1033.4 hPa ENE 9.2 mph /  14.8 km/h 9.2 mph /  14.8 km/h 72 % 0 in /  0.0 mm
22:53 56.5 °F /  13.6 °C 47.7 °F /  8.7 °C 30.5 in /  1033.4 hPa ENE 11.5 mph /  18.5 km/h 11.5 mph /  18.5 km/h 72 % 0 in /  0.0 mm
23:03 56.7 °F /  13.7 °C 47.7 °F /  8.7 °C 30.5 in /  1033.4 hPa ENE 9.2 mph /  14.8 km/h 9.2 mph /  14.8 km/h 72 % 0 in /  0.0 mm
23:08 56.5 °F /  13.6 °C 47.5 °F /  8.6 °C 30.5 in /  1033.4 hPa ENE 10.4 mph /  16.7 km/h 10.4 mph /  16.7 km/h 72 % 0 in /  0.0 mm
23:13 56.5 °F /  13.6 °C 47.5 °F /  8.6 °C 30.5 in /  1033.4 hPa NE 8.1 mph /  13.0 km/h 8.1 mph /  13.0 km/h 72 % 0 in /  0.0 mm
23:18 56.1 °F /  13.4 °C 47.7 °F /  8.7 °C 30.5 in /  1033.4 hPa NE 9.2 mph /  14.8 km/h 9.2 mph /  14.8 km/h 73 % 0 in /  0.0 mm
23:23 56.5 °F /  13.6 °C 47.5 °F /  8.6 °C 30.5 in /  1033.4 hPa ENE 11 mph /  17.7 km/h 11 mph /  17.7 km/h 72 % 0 in /  0.0 mm
23:28 56.7 °F /  13.7 °C 47.7 °F /  8.7 °C 30.5 in /  1033.4 hPa ENE 11.5 mph /  18.5 km/h 11.5 mph /  18.5 km/h 72 % 0 in /  0.0 mm
23:33 56.7 °F /  13.7 °C 47.7 °F /  8.7 °C 30.5 in /  1033.4 hPa NE 11.5 mph /  18.5 km/h 11.5 mph /  18.5 km/h 72 % 0 in /  0.0 mm
23:38 56.7 °F /  13.7 °C 47.3 °F /  8.5 °C 30.5 in /  1033.4 hPa ENE 11.5 mph /  18.5 km/h 11.5 mph /  18.5 km/h 71 % 0 in /  0.0 mm
23:43 56.7 °F /  13.7 °C 47.3 °F /  8.5 °C 30.5 in /  1033.4 hPa NE 11.5 mph /  18.5 km/h 11.5 mph /  18.5 km/h 71 % 0 in /  0.0 mm
23:48 56.5 °F /  13.6 °C 47.1 °F /  8.4 °C 30.5 in /  1033.4 hPa ENE 10.4 mph /  16.7 km/h 10.4 mph /  16.7 km/h 71 % 0 in /  0.0 mm
23:54 56.5 °F /  13.6 °C 47.1 °F /  8.4 °C 30.5 in /  1033.4 hPa NE 10.4 mph /  16.7 km/h 10.4 mph /  16.7 km/h 71 % 0 in /  0.0 mm
23:59 56.3 °F /  13.5 °C 46.9 °F /  8.3 °C 30.5 in /  1033.4 hPa NE 9.2 mph /  14.8 km/h 9.2 mph /  14.8 km/h 71 % 0 in /  0.0 mm
Puerto Banus, Marbella
Elogios de Weather Underground - 1.75 mb

Guión original por  Jim McMurry - jmcmurry@mwt.net Adaptado para la plantilla por  Wim van der Kuil - Leuven-Template.eu

Usted encontrará nuestra información del tiempo también en:

Weather Underground

Iberian Peninsula Weather Network